sensor_id;sensor_type;location;lat;lon;timestamp;P1;durP1;ratioP1;P2;durP2;ratioP2
34497;SDS011;20744;50.938;7.286;2023-08-01T00:00:06;26.02;;;2.22;;
34497;SDS011;20744;50.938;7.286;2023-08-01T00:02:34;3.65;;;1.65;;
34497;SDS011;20744;50.938;7.286;2023-08-01T00:05:01;4.68;;;1.90;;
34497;SDS011;20744;50.938;7.286;2023-08-01T00:07:28;15.05;;;1.95;;
34497;SDS011;20744;50.938;7.286;2023-08-01T00:09:56;7.07;;;1.75;;
34497;SDS011;20744;50.938;7.286;2023-08-01T00:12:23;6.60;;;1.83;;
34497;SDS011;20744;50.938;7.286;2023-08-01T00:14:52;8.35;;;1.70;;
34497;SDS011;20744;50.938;7.286;2023-08-01T00:17:20;5.40;;;1.42;;
34497;SDS011;20744;50.938;7.286;2023-08-01T00:19:47;6.13;;;1.70;;
34497;SDS011;20744;50.938;7.286;2023-08-01T00:22:14;7.57;;;1.67;;
34497;SDS011;20744;50.938;7.286;2023-08-01T00:24:41;3.60;;;1.00;;
34497;SDS011;20744;50.938;7.286;2023-08-01T00:27:08;6.78;;;1.27;;
34497;SDS011;20744;50.938;7.286;2023-08-01T00:29:36;4.22;;;1.13;;
34497;SDS011;20744;50.938;7.286;2023-08-01T00:32:05;6.03;;;1.17;;
34497;SDS011;20744;50.938;7.286;2023-08-01T00:34:32;4.40;;;1.27;;
34497;SDS011;20744;50.938;7.286;2023-08-01T00:36:59;6.47;;;1.15;;
34497;SDS011;20744;50.938;7.286;2023-08-01T00:39:27;7.22;;;0.88;;
34497;SDS011;20744;50.938;7.286;2023-08-01T00:41:54;101.32;;;3.58;;
34497;SDS011;20744;50.938;7.286;2023-08-01T00:44:21;4.90;;;0.82;;
34497;SDS011;20744;50.938;7.286;2023-08-01T00:46:48;3.00;;;0.82;;
34497;SDS011;20744;50.938;7.286;2023-08-01T00:49:17;11.18;;;0.80;;
34497;SDS011;20744;50.938;7.286;2023-08-01T00:51:45;8.40;;;0.80;;
34497;SDS011;20744;50.938;7.286;2023-08-01T00:54:12;5.05;;;0.70;;
34497;SDS011;20744;50.938;7.286;2023-08-01T00:56:40;3.17;;;0.80;;
34497;SDS011;20744;50.938;7.286;2023-08-01T00:59:07;6.90;;;1.13;;
34497;SDS011;20744;50.938;7.286;2023-08-01T01:01:33;1.83;;;0.80;;
34497;SDS011;20744;50.938;7.286;2023-08-01T01:04:01;3.17;;;0.68;;
34497;SDS011;20744;50.938;7.286;2023-08-01T01:06:31;6.55;;;0.70;;
34497;SDS011;20744;50.938;7.286;2023-08-01T01:08:59;2.03;;;0.80;;
34497;SDS011;20744;50.938;7.286;2023-08-01T01:11:29;18.65;;;1.33;;
34497;SDS011;20744;50.938;7.286;2023-08-01T01:13:57;4.97;;;0.93;;
34497;SDS011;20744;50.938;7.286;2023-08-01T01:16:24;4.63;;;0.90;;
34497;SDS011;20744;50.938;7.286;2023-08-01T01:18:51;5.15;;;1.10;;
34497;SDS011;20744;50.938;7.286;2023-08-01T01:21:20;4.40;;;0.80;;
34497;SDS011;20744;50.938;7.286;2023-08-01T01:23:47;3.22;;;0.63;;
34497;SDS011;20744;50.938;7.286;2023-08-01T01:26:15;2.90;;;0.70;;
34497;SDS011;20744;50.938;7.286;2023-08-01T01:28:45;1.17;;;0.60;;
34497;SDS011;20744;50.938;7.286;2023-08-01T01:31:13;2.60;;;0.60;;
34497;SDS011;20744;50.938;7.286;2023-08-01T01:33:41;9.50;;;0.75;;
34497;SDS011;20744;50.938;7.286;2023-08-01T01:36:08;1.10;;;0.47;;
34497;SDS011;20744;50.938;7.286;2023-08-01T01:38:37;1.00;;;0.40;;
34497;SDS011;20744;50.938;7.286;2023-08-01T01:41:04;5.93;;;0.70;;
34497;SDS011;20744;50.938;7.286;2023-08-01T01:43:31;2.95;;;0.77;;
34497;SDS011;20744;50.938;7.286;2023-08-01T01:45:59;2.70;;;0.30;;
34497;SDS011;20744;50.938;7.286;2023-08-01T01:48:26;11.65;;;0.65;;
34497;SDS011;20744;50.938;7.286;2023-08-01T01:50:53;4.55;;;0.90;;
34497;SDS011;20744;50.938;7.286;2023-08-01T01:53:20;10.05;;;1.30;;
34497;SDS011;20744;50.938;7.286;2023-08-01T01:55:49;6.40;;;0.90;;
34497;SDS011;20744;50.938;7.286;2023-08-01T01:58:16;12.20;;;1.00;;
34497;SDS011;20744;50.938;7.286;2023-08-01T02:00:43;13.23;;;0.90;;
34497;SDS011;20744;50.938;7.286;2023-08-01T02:03:11;4.00;;;0.88;;
34497;SDS011;20744;50.938;7.286;2023-08-01T02:05:39;12.48;;;1.08;;
34497;SDS011;20744;50.938;7.286;2023-08-01T02:08:06;1.90;;;0.73;;
34497;SDS011;20744;50.938;7.286;2023-08-01T02:10:34;9.02;;;1.10;;
34497;SDS011;20744;50.938;7.286;2023-08-01T02:13:02;6.68;;;0.90;;
34497;SDS011;20744;50.938;7.286;2023-08-01T02:15:29;8.15;;;0.80;;
34497;SDS011;20744;50.938;7.286;2023-08-01T02:17:57;4.22;;;1.00;;
34497;SDS011;20744;50.938;7.286;2023-08-01T02:20:24;1.63;;;0.75;;
34497;SDS011;20744;50.938;7.286;2023-08-01T02:22:54;1.38;;;0.68;;
34497;SDS011;20744;50.938;7.286;2023-08-01T02:25:21;3.45;;;0.60;;
34497;SDS011;20744;50.938;7.286;2023-08-01T02:27:48;2.35;;;0.98;;
34497;SDS011;20744;50.938;7.286;2023-08-01T02:30:17;2.38;;;0.90;;
34497;SDS011;20744;50.938;7.286;2023-08-01T02:32:44;3.72;;;0.80;;
34497;SDS011;20744;50.938;7.286;2023-08-01T02:35:12;9.05;;;1.00;;
34497;SDS011;20744;50.938;7.286;2023-08-01T02:37:39;3.10;;;1.10;;
34497;SDS011;20744;50.938;7.286;2023-08-01T02:40:08;5.18;;;0.70;;
34497;SDS011;20744;50.938;7.286;2023-08-01T02:42:35;0.65;;;0.52;;
34497;SDS011;20744;50.938;7.286;2023-08-01T02:45:03;5.70;;;0.70;;
34497;SDS011;20744;50.938;7.286;2023-08-01T02:47:31;3.50;;;0.80;;
34497;SDS011;20744;50.938;7.286;2023-08-01T02:49:59;4.45;;;0.80;;
34497;SDS011;20744;50.938;7.286;2023-08-01T02:52:26;5.80;;;0.85;;
34497;SDS011;20744;50.938;7.286;2023-08-01T02:54:54;1.77;;;0.80;;
34497;SDS011;20744;50.938;7.286;2023-08-01T02:57:22;0.85;;;0.60;;
34497;SDS011;20744;50.938;7.286;2023-08-01T02:59:49;3.67;;;0.60;;
34497;SDS011;20744;50.938;7.286;2023-08-01T03:02:16;4.57;;;0.73;;
34497;SDS011;20744;50.938;7.286;2023-08-01T03:04:45;6.38;;;0.90;;
34497;SDS011;20744;50.938;7.286;2023-08-01T03:07:12;4.97;;;1.15;;
34497;SDS011;20744;50.938;7.286;2023-08-01T03:09:39;5.40;;;1.23;;
34497;SDS011;20744;50.938;7.286;2023-08-01T03:12:07;4.97;;;1.05;;
34497;SDS011;20744;50.938;7.286;2023-08-01T03:14:35;7.50;;;1.40;;
34497;SDS011;20744;50.938;7.286;2023-08-01T03:17:02;4.93;;;1.20;;
34497;SDS011;20744;50.938;7.286;2023-08-01T03:19:30;4.43;;;1.08;;
34497;SDS011;20744;50.938;7.286;2023-08-01T03:21:58;3.47;;;1.17;;
34497;SDS011;20744;50.938;7.286;2023-08-01T03:24:26;5.97;;;1.17;;
34497;SDS011;20744;50.938;7.286;2023-08-01T03:26:54;3.33;;;1.08;;
34497;SDS011;20744;50.938;7.286;2023-08-01T03:29:21;4.88;;;1.58;;
34497;SDS011;20744;50.938;7.286;2023-08-01T03:31:48;3.17;;;1.10;;
34497;SDS011;20744;50.938;7.286;2023-08-01T03:34:15;3.05;;;1.05;;
34497;SDS011;20744;50.938;7.286;2023-08-01T03:36:43;4.15;;;1.02;;
34497;SDS011;20744;50.938;7.286;2023-08-01T03:39:11;4.10;;;1.10;;
34497;SDS011;20744;50.938;7.286;2023-08-01T03:41:39;2.83;;;1.60;;
34497;SDS011;20744;50.938;7.286;2023-08-01T03:44:06;3.42;;;1.73;;
34497;SDS011;20744;50.938;7.286;2023-08-01T03:46:33;7.82;;;2.42;;
34497;SDS011;20744;50.938;7.286;2023-08-01T03:49:00;4.20;;;2.50;;
34497;SDS011;20744;50.938;7.286;2023-08-01T03:51:28;6.38;;;2.78;;
34497;SDS011;20744;50.938;7.286;2023-08-01T03:53:55;6.18;;;2.97;;
34497;SDS011;20744;50.938;7.286;2023-08-01T03:56:24;6.03;;;2.80;;
34497;SDS011;20744;50.938;7.286;2023-08-01T03:58:52;6.68;;;3.10;;
34497;SDS011;20744;50.938;7.286;2023-08-01T04:01:19;9.07;;;3.65;;
34497;SDS011;20744;50.938;7.286;2023-08-01T04:03:46;8.70;;;3.30;;
34497;SDS011;20744;50.938;7.286;2023-08-01T04:06:13;8.95;;;3.40;;
34497;SDS011;20744;50.938;7.286;2023-08-01T04:08:41;7.90;;;3.17;;
34497;SDS011;20744;50.938;7.286;2023-08-01T04:11:11;5.57;;;4.30;;
34497;SDS011;20744;50.938;7.286;2023-08-01T04:13:40;7.03;;;4.82;;
34497;SDS011;20744;50.938;7.286;2023-08-01T04:16:07;11.15;;;4.70;;
34497;SDS011;20744;50.938;7.286;2023-08-01T04:18:34;13.75;;;4.28;;
34497;SDS011;20744;50.938;7.286;2023-08-01T04:21:02;5.93;;;4.30;;
34497;SDS011;20744;50.938;7.286;2023-08-01T04:23:29;6.63;;;4.45;;
34497;SDS011;20744;50.938;7.286;2023-08-01T04:25:56;7.20;;;4.90;;
34497;SDS011;20744;50.938;7.286;2023-08-01T04:28:24;9.95;;;5.55;;
34497;SDS011;20744;50.938;7.286;2023-08-01T04:30:53;11.52;;;5.70;;
34497;SDS011;20744;50.938;7.286;2023-08-01T04:33:20;12.25;;;6.50;;
34497;SDS011;20744;50.938;7.286;2023-08-01T04:35:47;18.30;;;6.43;;
34497;SDS011;20744;50.938;7.286;2023-08-01T04:38:15;11.27;;;7.20;;
34497;SDS011;20744;50.938;7.286;2023-08-01T04:40:43;14.00;;;7.03;;
34497;SDS011;20744;50.938;7.286;2023-08-01T04:43:11;14.32;;;7.82;;
34497;SDS011;20744;50.938;7.286;2023-08-01T04:45:38;12.10;;;7.68;;
34497;SDS011;20744;50.938;7.286;2023-08-01T04:48:07;13.98;;;7.90;;
34497;SDS011;20744;50.938;7.286;2023-08-01T04:50:34;17.52;;;8.80;;
34497;SDS011;20744;50.938;7.286;2023-08-01T04:53:02;12.25;;;8.27;;
34497;SDS011;20744;50.938;7.286;2023-08-01T04:55:31;13.73;;;8.63;;
34497;SDS011;20744;50.938;7.286;2023-08-01T04:57:58;18.90;;;9.35;;
34497;SDS011;20744;50.938;7.286;2023-08-01T05:00:25;15.75;;;9.15;;
34497;SDS011;20744;50.938;7.286;2023-08-01T05:02:53;16.58;;;8.95;;
34497;SDS011;20744;50.938;7.286;2023-08-01T05:05:21;15.32;;;8.95;;
34497;SDS011;20744;50.938;7.286;2023-08-01T05:07:49;18.88;;;8.95;;
34497;SDS011;20744;50.938;7.286;2023-08-01T05:10:16;13.20;;;9.07;;
34497;SDS011;20744;50.938;7.286;2023-08-01T05:12:43;16.60;;;9.23;;
34497;SDS011;20744;50.938;7.286;2023-08-01T05:15:11;23.02;;;9.48;;
34497;SDS011;20744;50.938;7.286;2023-08-01T05:17:38;15.05;;;9.55;;
34497;SDS011;20744;50.938;7.286;2023-08-01T05:20:05;18.83;;;10.00;;
34497;SDS011;20744;50.938;7.286;2023-08-01T05:22:34;21.42;;;9.45;;
34497;SDS011;20744;50.938;7.286;2023-08-01T05:25:02;15.05;;;8.95;;
34497;SDS011;20744;50.938;7.286;2023-08-01T05:27:30;19.48;;;9.27;;
34497;SDS011;20744;50.938;7.286;2023-08-01T05:29:59;16.90;;;9.50;;
34497;SDS011;20744;50.938;7.286;2023-08-01T05:32:26;13.88;;;10.07;;
34497;SDS011;20744;50.938;7.286;2023-08-01T05:34:53;19.67;;;9.98;;
34497;SDS011;20744;50.938;7.286;2023-08-01T05:37:20;18.08;;;10.95;;
34497;SDS011;20744;50.938;7.286;2023-08-01T05:39:49;18.48;;;10.98;;
34497;SDS011;20744;50.938;7.286;2023-08-01T05:42:16;23.30;;;10.27;;
34497;SDS011;20744;50.938;7.286;2023-08-01T05:44:44;17.08;;;10.13;;
34497;SDS011;20744;50.938;7.286;2023-08-01T05:47:11;15.25;;;8.88;;
34497;SDS011;20744;50.938;7.286;2023-08-01T05:49:38;18.40;;;8.95;;
34497;SDS011;20744;50.938;7.286;2023-08-01T05:52:07;17.60;;;9.38;;
34497;SDS011;20744;50.938;7.286;2023-08-01T05:54:34;15.40;;;8.63;;
34497;SDS011;20744;50.938;7.286;2023-08-01T05:57:03;18.70;;;8.43;;
34497;SDS011;20744;50.938;7.286;2023-08-01T05:59:31;18.40;;;7.88;;
34497;SDS011;20744;50.938;7.286;2023-08-01T06:01:58;14.70;;;8.23;;
34497;SDS011;20744;50.938;7.286;2023-08-01T06:04:25;16.48;;;8.20;;
34497;SDS011;20744;50.938;7.286;2023-08-01T06:06:53;19.85;;;8.40;;
34497;SDS011;20744;50.938;7.286;2023-08-01T06:09:21;20.52;;;8.07;;
34497;SDS011;20744;50.938;7.286;2023-08-01T06:11:48;16.48;;;7.07;;
34497;SDS011;20744;50.938;7.286;2023-08-01T06:14:17;15.80;;;7.45;;
34497;SDS011;20744;50.938;7.286;2023-08-01T06:16:44;23.75;;;8.00;;
34497;SDS011;20744;50.938;7.286;2023-08-01T06:19:11;16.02;;;7.78;;
34497;SDS011;20744;50.938;7.286;2023-08-01T06:21:39;19.73;;;7.93;;
34497;SDS011;20744;50.938;7.286;2023-08-01T06:24:06;16.75;;;7.32;;
34497;SDS011;20744;50.938;7.286;2023-08-01T06:26:33;10.85;;;6.70;;
34497;SDS011;20744;50.938;7.286;2023-08-01T06:29:01;15.48;;;6.70;;
34497;SDS011;20744;50.938;7.286;2023-08-01T06:31:30;18.73;;;6.65;;
34497;SDS011;20744;50.938;7.286;2023-08-01T06:33:57;14.63;;;7.72;;
34497;SDS011;20744;50.938;7.286;2023-08-01T06:36:27;12.10;;;6.47;;
34497;SDS011;20744;50.938;7.286;2023-08-01T06:38:55;18.67;;;6.85;;
34497;SDS011;20744;50.938;7.286;2023-08-01T06:41:25;13.90;;;6.18;;
34497;SDS011;20744;50.938;7.286;2023-08-01T06:43:54;13.02;;;6.68;;
34497;SDS011;20744;50.938;7.286;2023-08-01T06:46:21;13.85;;;6.90;;
34497;SDS011;20744;50.938;7.286;2023-08-01T06:48:50;12.07;;;6.65;;
34497;SDS011;20744;50.938;7.286;2023-08-01T06:51:20;13.98;;;6.10;;
34497;SDS011;20744;50.938;7.286;2023-08-01T06:53:47;12.23;;;5.82;;
34497;SDS011;20744;50.938;7.286;2023-08-01T06:56:15;14.80;;;6.60;;
34497;SDS011;20744;50.938;7.286;2023-08-01T06:58:42;15.10;;;6.38;;
34497;SDS011;20744;50.938;7.286;2023-08-01T07:01:09;12.63;;;6.85;;
34497;SDS011;20744;50.938;7.286;2023-08-01T07:03:38;18.80;;;6.32;;
34497;SDS011;20744;50.938;7.286;2023-08-01T07:06:06;15.98;;;6.30;;
34497;SDS011;20744;50.938;7.286;2023-08-01T07:08:33;11.73;;;6.07;;
34497;SDS011;20744;50.938;7.286;2023-08-01T07:11:01;11.98;;;6.10;;
34497;SDS011;20744;50.938;7.286;2023-08-01T07:13:28;16.60;;;5.95;;
34497;SDS011;20744;50.938;7.286;2023-08-01T07:15:55;12.93;;;5.80;;
34497;SDS011;20744;50.938;7.286;2023-08-01T07:18:22;11.57;;;5.38;;
34497;SDS011;20744;50.938;7.286;2023-08-01T07:20:58;11.93;;;5.75;;
34497;SDS011;20744;50.938;7.286;2023-08-01T07:23:27;14.32;;;6.00;;
34497;SDS011;20744;50.938;7.286;2023-08-01T07:25:54;18.25;;;5.78;;
34497;SDS011;20744;50.938;7.286;2023-08-01T07:28:22;14.00;;;6.00;;
34497;SDS011;20744;50.938;7.286;2023-08-01T07:30:57;14.45;;;6.28;;
34497;SDS011;20744;50.938;7.286;2023-08-01T07:33:24;19.92;;;6.07;;
34497;SDS011;20744;50.938;7.286;2023-08-01T07:35:52;15.55;;;6.22;;
34497;SDS011;20744;50.938;7.286;2023-08-01T07:38:19;11.65;;;6.22;;
34497;SDS011;20744;50.938;7.286;2023-08-01T07:40:48;15.60;;;6.18;;
34497;SDS011;20744;50.938;7.286;2023-08-01T07:43:15;17.52;;;6.00;;
34497;SDS011;20744;50.938;7.286;2023-08-01T07:45:44;13.30;;;6.47;;
34497;SDS011;20744;50.938;7.286;2023-08-01T07:48:11;15.00;;;6.05;;
34497;SDS011;20744;50.938;7.286;2023-08-01T07:50:38;12.50;;;6.05;;
34497;SDS011;20744;50.938;7.286;2023-08-01T07:53:06;12.60;;;5.57;;
34497;SDS011;20744;50.938;7.286;2023-08-01T07:55:33;20.58;;;6.05;;
34497;SDS011;20744;50.938;7.286;2023-08-01T07:58:02;12.93;;;6.07;;
34497;SDS011;20744;50.938;7.286;2023-08-01T08:00:30;19.27;;;6.68;;
34497;SDS011;20744;50.938;7.286;2023-08-01T08:02:57;12.82;;;5.90;;
34497;SDS011;20744;50.938;7.286;2023-08-01T08:05:24;12.20;;;5.03;;
34497;SDS011;20744;50.938;7.286;2023-08-01T08:07:52;10.88;;;4.55;;
34497;SDS011;20744;50.938;7.286;2023-08-01T08:10:19;10.68;;;5.07;;
34497;SDS011;20744;50.938;7.286;2023-08-01T08:12:46;9.63;;;4.15;;
34497;SDS011;20744;50.938;7.286;2023-08-01T08:15:16;13.70;;;4.97;;
34497;SDS011;20744;50.938;7.286;2023-08-01T08:17:45;10.75;;;4.60;;
34497;SDS011;20744;50.938;7.286;2023-08-01T08:20:12;12.45;;;4.55;;
34497;SDS011;20744;50.938;7.286;2023-08-01T08:22:39;13.35;;;4.50;;
34497;SDS011;20744;50.938;7.286;2023-08-01T08:25:07;9.52;;;4.60;;
34497;SDS011;20744;50.938;7.286;2023-08-01T08:27:34;8.13;;;4.38;;
34497;SDS011;20744;50.938;7.286;2023-08-01T08:30:01;9.38;;;4.10;;
34497;SDS011;20744;50.938;7.286;2023-08-01T08:32:30;11.02;;;4.85;;
34497;SDS011;20744;50.938;7.286;2023-08-01T08:34:57;11.57;;;4.68;;
34497;SDS011;20744;50.938;7.286;2023-08-01T08:37:25;10.75;;;4.22;;
34497;SDS011;20744;50.938;7.286;2023-08-01T08:39:52;11.00;;;4.60;;
34497;SDS011;20744;50.938;7.286;2023-08-01T08:42:19;10.73;;;4.55;;
34497;SDS011;20744;50.938;7.286;2023-08-01T08:44:48;9.43;;;4.30;;
34497;SDS011;20744;50.938;7.286;2023-08-01T08:47:17;9.68;;;4.25;;
34497;SDS011;20744;50.938;7.286;2023-08-01T08:49:45;12.18;;;4.60;;
34497;SDS011;20744;50.938;7.286;2023-08-01T08:52:13;11.70;;;4.32;;
34497;SDS011;20744;50.938;7.286;2023-08-01T08:54:41;8.75;;;4.45;;
34497;SDS011;20744;50.938;7.286;2023-08-01T08:57:08;13.05;;;4.68;;
34497;SDS011;20744;50.938;7.286;2023-08-01T08:59:36;12.82;;;4.05;;
34497;SDS011;20744;50.938;7.286;2023-08-01T09:02:03;8.57;;;3.90;;
34497;SDS011;20744;50.938;7.286;2023-08-01T09:04:31;7.25;;;4.43;;
34497;SDS011;20744;50.938;7.286;2023-08-01T09:07:01;13.82;;;4.35;;
34497;SDS011;20744;50.938;7.286;2023-08-01T09:09:29;10.93;;;3.75;;
34497;SDS011;20744;50.938;7.286;2023-08-01T09:11:57;13.02;;;4.18;;
34497;SDS011;20744;50.938;7.286;2023-08-01T09:14:25;9.02;;;4.32;;
34497;SDS011;20744;50.938;7.286;2023-08-01T09:16:52;14.73;;;4.60;;
34497;SDS011;20744;50.938;7.286;2023-08-01T09:19:20;8.32;;;4.32;;
34497;SDS011;20744;50.938;7.286;2023-08-01T09:21:47;15.07;;;4.38;;
34497;SDS011;20744;50.938;7.286;2023-08-01T09:24:16;10.02;;;3.75;;
34497;SDS011;20744;50.938;7.286;2023-08-01T09:26:44;12.90;;;4.20;;
34497;SDS011;20744;50.938;7.286;2023-08-01T09:29:12;12.15;;;4.18;;
34497;SDS011;20744;50.938;7.286;2023-08-01T09:31:40;8.70;;;3.70;;
34497;SDS011;20744;50.938;7.286;2023-08-01T09:34:17;9.13;;;3.88;;
34497;SDS011;20744;50.938;7.286;2023-08-01T09:36:45;7.38;;;3.80;;
34497;SDS011;20744;50.938;7.286;2023-08-01T09:39:16;10.95;;;4.15;;
34497;SDS011;20744;50.938;7.286;2023-08-01T09:41:44;8.32;;;3.30;;
34497;SDS011;20744;50.938;7.286;2023-08-01T09:44:11;8.07;;;3.63;;
34497;SDS011;20744;50.938;7.286;2023-08-01T09:46:39;8.52;;;3.08;;
34497;SDS011;20744;50.938;7.286;2023-08-01T09:49:07;8.00;;;3.30;;
34497;SDS011;20744;50.938;7.286;2023-08-01T09:51:45;6.10;;;2.70;;
34497;SDS011;20744;50.938;7.286;2023-08-01T09:54:14;6.55;;;2.65;;
34497;SDS011;20744;50.938;7.286;2023-08-01T09:56:43;5.88;;;2.30;;
34497;SDS011;20744;50.938;7.286;2023-08-01T09:59:11;7.07;;;2.95;;
34497;SDS011;20744;50.938;7.286;2023-08-01T10:01:41;8.18;;;2.72;;
34497;SDS011;20744;50.938;7.286;2023-08-01T10:04:11;7.32;;;2.80;;
34497;SDS011;20744;50.938;7.286;2023-08-01T10:06:38;7.65;;;2.63;;
34497;SDS011;20744;50.938;7.286;2023-08-01T10:09:10;6.95;;;2.55;;
34497;SDS011;20744;50.938;7.286;2023-08-01T10:11:38;5.38;;;2.33;;
34497;SDS011;20744;50.938;7.286;2023-08-01T10:14:07;6.80;;;2.72;;
34497;SDS011;20744;50.938;7.286;2023-08-01T10:16:35;8.23;;;2.55;;
34497;SDS011;20744;50.938;7.286;2023-08-01T10:19:04;7.82;;;2.70;;
34497;SDS011;20744;50.938;7.286;2023-08-01T10:21:33;5.60;;;2.63;;
34497;SDS011;20744;50.938;7.286;2023-08-01T10:24:01;8.68;;;2.70;;
34497;SDS011;20744;50.938;7.286;2023-08-01T10:26:29;7.55;;;2.60;;
34497;SDS011;20744;50.938;7.286;2023-08-01T10:28:57;6.25;;;2.58;;
34497;SDS011;20744;50.938;7.286;2023-08-01T10:31:27;7.10;;;2.75;;
34497;SDS011;20744;50.938;7.286;2023-08-01T10:34:03;5.50;;;2.15;;
34497;SDS011;20744;50.938;7.286;2023-08-01T10:36:30;7.88;;;2.67;;
34497;SDS011;20744;50.938;7.286;2023-08-01T10:38:58;6.00;;;2.60;;
34497;SDS011;20744;50.938;7.286;2023-08-01T10:41:26;6.07;;;2.45;;
34497;SDS011;20744;50.938;7.286;2023-08-01T10:44:03;6.85;;;2.63;;
34497;SDS011;20744;50.938;7.286;2023-08-01T10:46:45;6.60;;;2.00;;
34497;SDS011;20744;50.938;7.286;2023-08-01T10:49:13;5.88;;;2.58;;
34497;SDS011;20744;50.938;7.286;2023-08-01T10:51:41;5.50;;;2.38;;
34497;SDS011;20744;50.938;7.286;2023-08-01T10:54:17;7.00;;;2.55;;
34497;SDS011;20744;50.938;7.286;2023-08-01T10:56:45;7.20;;;2.80;;
34497;SDS011;20744;50.938;7.286;2023-08-01T10:59:12;9.57;;;2.63;;
34497;SDS011;20744;50.938;7.286;2023-08-01T11:01:43;7.47;;;2.38;;
34497;SDS011;20744;50.938;7.286;2023-08-01T11:04:16;6.95;;;2.25;;
34497;SDS011;20744;50.938;7.286;2023-08-01T11:06:44;5.90;;;2.47;;
34497;SDS011;20744;50.938;7.286;2023-08-01T11:09:18;6.18;;;2.67;;
34497;SDS011;20744;50.938;7.286;2023-08-01T11:11:46;7.60;;;2.70;;
34497;SDS011;20744;50.938;7.286;2023-08-01T11:14:15;8.60;;;2.55;;
34497;SDS011;20744;50.938;7.286;2023-08-01T11:16:43;7.25;;;2.47;;
34497;SDS011;20744;50.938;7.286;2023-08-01T11:19:22;4.28;;;2.15;;
34497;SDS011;20744;50.938;7.286;2023-08-01T11:21:49;5.32;;;2.28;;
34497;SDS011;20744;50.938;7.286;2023-08-01T11:24:17;9.90;;;2.28;;
34497;SDS011;20744;50.938;7.286;2023-08-01T11:26:46;5.65;;;2.00;;
34497;SDS011;20744;50.938;7.286;2023-08-01T11:29:14;6.30;;;1.95;;
34497;SDS011;20744;50.938;7.286;2023-08-01T11:31:41;5.30;;;2.15;;
34497;SDS011;20744;50.938;7.286;2023-08-01T11:34:18;6.97;;;1.80;;
34497;SDS011;20744;50.938;7.286;2023-08-01T11:36:47;8.77;;;1.92;;
34497;SDS011;20744;50.938;7.286;2023-08-01T11:39:15;4.82;;;1.60;;
34497;SDS011;20744;50.938;7.286;2023-08-01T11:41:42;4.93;;;1.90;;
34497;SDS011;20744;50.938;7.286;2023-08-01T11:44:10;3.78;;;2.00;;
34497;SDS011;20744;50.938;7.286;2023-08-01T11:46:38;5.45;;;1.70;;
34497;SDS011;20744;50.938;7.286;2023-08-01T11:49:06;5.55;;;1.80;;
34497;SDS011;20744;50.938;7.286;2023-08-01T11:51:38;5.28;;;1.95;;
34497;SDS011;20744;50.938;7.286;2023-08-01T11:54:07;3.20;;;1.52;;
34497;SDS011;20744;50.938;7.286;2023-08-01T11:56:36;4.60;;;1.60;;
34497;SDS011;20744;50.938;7.286;2023-08-01T11:59:09;5.35;;;2.05;;
34497;SDS011;20744;50.938;7.286;2023-08-01T12:01:37;2.97;;;1.40;;
34497;SDS011;20744;50.938;7.286;2023-08-01T12:04:05;6.20;;;1.50;;
34497;SDS011;20744;50.938;7.286;2023-08-01T12:06:32;3.40;;;1.50;;
34497;SDS011;20744;50.938;7.286;2023-08-01T12:09:06;6.63;;;1.48;;
34497;SDS011;20744;50.938;7.286;2023-08-01T12:11:34;5.35;;;1.83;;
34497;SDS011;20744;50.938;7.286;2023-08-01T12:14:02;7.30;;;1.88;;
34497;SDS011;20744;50.938;7.286;2023-08-01T12:16:30;4.28;;;1.45;;
34497;SDS011;20744;50.938;7.286;2023-08-01T12:18:57;5.68;;;1.60;;
34497;SDS011;20744;50.938;7.286;2023-08-01T12:21:25;9.10;;;1.80;;
34497;SDS011;20744;50.938;7.286;2023-08-01T12:23:52;6.30;;;2.00;;
34497;SDS011;20744;50.938;7.286;2023-08-01T12:26:20;6.80;;;2.50;;
34497;SDS011;20744;50.938;7.286;2023-08-01T12:28:48;6.75;;;2.72;;
34497;SDS011;20744;50.938;7.286;2023-08-01T12:31:15;6.70;;;1.88;;
34497;SDS011;20744;50.938;7.286;2023-08-01T12:33:44;5.13;;;1.90;;
34497;SDS011;20744;50.938;7.286;2023-08-01T12:36:11;5.68;;;1.67;;
34497;SDS011;20744;50.938;7.286;2023-08-01T12:38:38;5.05;;;1.95;;
34497;SDS011;20744;50.938;7.286;2023-08-01T12:41:06;5.38;;;1.63;;
34497;SDS011;20744;50.938;7.286;2023-08-01T12:43:35;4.05;;;1.77;;
34497;SDS011;20744;50.938;7.286;2023-08-01T12:46:02;6.10;;;1.75;;
34497;SDS011;20744;50.938;7.286;2023-08-01T12:48:29;6.90;;;1.90;;
34497;SDS011;20744;50.938;7.286;2023-08-01T12:50:57;6.95;;;1.80;;
34497;SDS011;20744;50.938;7.286;2023-08-01T12:53:24;5.82;;;1.60;;
34497;SDS011;20744;50.938;7.286;2023-08-01T12:55:52;4.80;;;1.80;;
34497;SDS011;20744;50.938;7.286;2023-08-01T12:58:19;5.40;;;1.92;;
34497;SDS011;20744;50.938;7.286;2023-08-01T13:00:48;9.45;;;2.15;;
34497;SDS011;20744;50.938;7.286;2023-08-01T13:03:15;5.93;;;2.25;;
34497;SDS011;20744;50.938;7.286;2023-08-01T13:05:42;6.95;;;1.90;;
34497;SDS011;20744;50.938;7.286;2023-08-01T13:08:09;8.02;;;2.22;;
34497;SDS011;20744;50.938;7.286;2023-08-01T13:10:37;6.18;;;2.35;;
34497;SDS011;20744;50.938;7.286;2023-08-01T13:13:05;10.32;;;2.53;;
34497;SDS011;20744;50.938;7.286;2023-08-01T13:15:33;6.40;;;2.40;;
34497;SDS011;20744;50.938;7.286;2023-08-01T13:18:01;8.52;;;2.35;;
34497;SDS011;20744;50.938;7.286;2023-08-01T13:20:28;7.72;;;2.60;;
34497;SDS011;20744;50.938;7.286;2023-08-01T13:22:56;6.47;;;2.67;;
34497;SDS011;20744;50.938;7.286;2023-08-01T13:25:23;9.77;;;3.20;;
34497;SDS011;20744;50.938;7.286;2023-08-01T13:27:50;7.00;;;2.60;;
34497;SDS011;20744;50.938;7.286;2023-08-01T13:30:18;8.25;;;3.20;;
34497;SDS011;20744;50.938;7.286;2023-08-01T13:32:45;9.32;;;3.60;;
34497;SDS011;20744;50.938;7.286;2023-08-01T13:35:14;9.60;;;3.40;;
34497;SDS011;20744;50.938;7.286;2023-08-01T13:37:41;6.38;;;3.35;;
34497;SDS011;20744;50.938;7.286;2023-08-01T13:40:11;11.90;;;3.65;;
34497;SDS011;20744;50.938;7.286;2023-08-01T13:42:39;4.93;;;3.35;;
34497;SDS011;20744;50.938;7.286;2023-08-01T13:45:07;9.85;;;3.42;;
34497;SDS011;20744;50.938;7.286;2023-08-01T13:47:34;8.13;;;3.75;;
34497;SDS011;20744;50.938;7.286;2023-08-01T13:50:01;5.82;;;3.22;;
34497;SDS011;20744;50.938;7.286;2023-08-01T13:52:30;7.47;;;3.17;;
34497;SDS011;20744;50.938;7.286;2023-08-01T13:54:57;7.65;;;3.58;;
34497;SDS011;20744;50.938;7.286;2023-08-01T13:57:25;9.65;;;3.42;;
34497;SDS011;20744;50.938;7.286;2023-08-01T13:59:52;8.85;;;3.30;;
34497;SDS011;20744;50.938;7.286;2023-08-01T14:02:20;10.18;;;3.63;;
34497;SDS011;20744;50.938;7.286;2023-08-01T14:04:50;6.10;;;3.40;;
34497;SDS011;20744;50.938;7.286;2023-08-01T14:07:18;15.77;;;3.85;;
34497;SDS011;20744;50.938;7.286;2023-08-01T14:09:47;10.10;;;4.10;;
34497;SDS011;20744;50.938;7.286;2023-08-01T14:12:14;7.45;;;3.88;;
34497;SDS011;20744;50.938;7.286;2023-08-01T14:14:44;7.55;;;4.28;;
34497;SDS011;20744;50.938;7.286;2023-08-01T14:17:11;11.23;;;4.45;;
34497;SDS011;20744;50.938;7.286;2023-08-01T14:19:38;6.47;;;3.20;;
34497;SDS011;20744;50.938;7.286;2023-08-01T14:22:06;6.15;;;2.83;;
34497;SDS011;20744;50.938;7.286;2023-08-01T14:24:33;10.25;;;3.20;;
34497;SDS011;20744;50.938;7.286;2023-08-01T14:27:02;5.10;;;3.17;;
34497;SDS011;20744;50.938;7.286;2023-08-01T14:29:29;7.53;;;2.70;;
34497;SDS011;20744;50.938;7.286;2023-08-01T14:31:56;6.50;;;2.90;;
34497;SDS011;20744;50.938;7.286;2023-08-01T14:34:23;7.30;;;3.15;;
34497;SDS011;20744;50.938;7.286;2023-08-01T14:36:51;5.63;;;2.60;;
34497;SDS011;20744;50.938;7.286;2023-08-01T14:39:18;9.23;;;3.00;;
34497;SDS011;20744;50.938;7.286;2023-08-01T14:41:45;7.45;;;3.58;;
34497;SDS011;20744;50.938;7.286;2023-08-01T14:44:14;11.15;;;4.40;;
34497;SDS011;20744;50.938;7.286;2023-08-01T14:46:41;8.35;;;4.00;;